Language: 


Des rapports , des résumés tant et plus, au choix de chacun....


Données statistiques de la station
Quotidien Rapport Janvier 28, 2018 Unités:  les deux    Anglais   Métrique
« Précédent Jour
Suivant Jour »
Quotidien Hebdomadaire Mensuel Annuel Actuel
  Haut: Bas: Moyen:
Température: TemperatureC °F /  -17.8 °C 7.2 °F /  -13.8 °C 10.5 °F /  -11.9 °C
Pt de rosée: DewpointC °F /  -17.8 °C 7.0 °F /  -13.9 °C 10.2 °F /  -12.1 °C
Humidité: Humidity % 91 % 96 %
Vitesse du vent: WindSpeedKMH mph /  0 km/h - 17.4 mph /  28 km/h
Rafales: WindSpeedGustKMH mph /  0 km/h - -
Vent:- - WSW
Pression: PressurehPa in /  0 hPa 1027.0 in /  34774.2 hPa -
Précipitation: 0.3 in /  7.62 mm    
Historical Graphs
 
 
Données statistiques pour Janvier 28, 2018
Heure Température Point de rosée Pression Vent Vitesse du vent Refales Humidité Pluie (taux horaire)
TemperatureC °F /  -17.8 °C DewpointC °F /  -17.8 °C PressurehPa in /  0 hPa Calm     Humidity % HourlyPrecipMM in /  0 mm
00:02 7.2 °F /  -13.8 °C 7.0 °F /  -13.9 °C 1027.0 in /  34774.2 hPa SSW 13.7 mph /  22 km/h 15.8 mph /  25.4 km/h 98 % 0.0 in /  0 mm
00:07 7.2 °F /  -13.8 °C 7.0 °F /  -13.9 °C 1027.0 in /  34774.2 hPa SW 12.6 mph /  20.3 km/h 15.8 mph /  25.4 km/h 98 % 0.0 in /  0 mm
00:12 7.3 °F /  -13.7 °C 7.0 °F /  -13.9 °C 1027.0 in /  34774.2 hPa SSW 14.0 mph /  22.5 km/h 15.8 mph /  25.4 km/h 98 % 0.0 in /  0 mm
00:17 7.3 °F /  -13.7 °C 7.0 °F /  -13.9 °C 1027.0 in /  34774.2 hPa SW 11.9 mph /  19.2 km/h 20.6 mph /  33.2 km/h 98 % 0.0 in /  0 mm
00:22 7.3 °F /  -13.7 °C 7.0 °F /  -13.9 °C 1027.0 in /  34774.2 hPa SW 16.3 mph /  26.2 km/h 20.6 mph /  33.2 km/h 98 % 0.0 in /  0 mm
00:27 7.4 °F /  -13.7 °C 7.0 °F /  -13.9 °C 1027.0 in /  34774.2 hPa SSW 13.7 mph /  22 km/h 17.2 mph /  27.7 km/h 98 % 0.0 in /  0 mm
00:32 7.4 °F /  -13.7 °C 7.0 °F /  -13.9 °C 1027.0 in /  34774.2 hPa SW 16.9 mph /  27.2 km/h 20.9 mph /  33.6 km/h 98 % 0.0 in /  0 mm
00:37 7.5 °F /  -13.6 °C 8.0 °F /  -13.3 °C 1027.0 in /  34774.2 hPa WSW 13.7 mph /  22 km/h 20.9 mph /  33.6 km/h 98 % 0.0 in /  0 mm
00:43 7.5 °F /  -13.6 °C 8.0 °F /  -13.3 °C 1027.0 in /  34774.2 hPa WSW 12.6 mph /  20.3 km/h 19.5 mph /  31.4 km/h 98 % 0.0 in /  0 mm
00:48 7.6 °F /  -13.6 °C 8.0 °F /  -13.3 °C 1027.0 in /  34774.2 hPa WSW 12.2 mph /  19.6 km/h 19.5 mph /  31.4 km/h 98 % 0.0 in /  0 mm
00:53 7.6 °F /  -13.6 °C 8.0 °F /  -13.3 °C 1027.0 in /  34774.2 hPa SW 9.7 mph /  15.6 km/h 19.1 mph /  30.7 km/h 98 % 0.0 in /  0 mm
00:58 7.7 °F /  -13.5 °C 8.0 °F /  -13.3 °C 1027.0 in /  34774.2 hPa SW 10.5 mph /  16.9 km/h 19.1 mph /  30.7 km/h 98 % 0.0 in /  0 mm
01:03 7.7 °F /  -13.5 °C 8.0 °F /  -13.3 °C 1027.0 in /  34774.2 hPa SW 10.5 mph /  16.9 km/h 13.7 mph /  22 km/h 98 % 0.0 in /  0 mm
01:08 7.8 °F /  -13.4 °C 8.0 °F /  -13.3 °C 1027.0 in /  34774.2 hPa SSW 9.3 mph /  15 km/h 14.0 mph /  22.5 km/h 98 % 0.0 in /  0 mm
01:13 7.8 °F /  -13.4 °C 8.0 °F /  -13.3 °C 1027.0 in /  34774.2 hPa SW 11.1 mph /  17.9 km/h 14.0 mph /  22.5 km/h 98 % 0.0 in /  0 mm
01:18 7.8 °F /  -13.4 °C 8.0 °F /  -13.3 °C 1027.0 in /  34774.2 hPa SSW 9.7 mph /  15.6 km/h 15.8 mph /  25.4 km/h 98 % 0.0 in /  0 mm
01:23 7.8 °F /  -13.4 °C 8.0 °F /  -13.3 °C 1027.0 in /  34774.2 hPa SW 9.0 mph /  14.5 km/h 15.8 mph /  25.4 km/h 98 % 0.3 in /  7.62 mm
01:28 7.9 °F /  -13.4 °C 8.0 °F /  -13.3 °C 1027.0 in /  34774.2 hPa WSW 9.0 mph /  14.5 km/h 15.4 mph /  24.8 km/h 98 % 0.3 in /  7.62 mm
01:33 7.9 °F /  -13.4 °C 8.0 °F /  -13.3 °C 1027.0 in /  34774.2 hPa SW 11.6 mph /  18.7 km/h 15.4 mph /  24.8 km/h 98 % 0.3 in /  7.62 mm
01:38 7.9 °F /  -13.4 °C 8.0 °F /  -13.3 °C 1027.0 in /  34774.2 hPa WSW 9.0 mph /  14.5 km/h 13.7 mph /  22 km/h 98 % 0.3 in /  7.62 mm
01:43 8.0 °F /  -13.3 °C 8.0 °F /  -13.3 °C 1027.0 in /  34774.2 hPa WSW 10.1 mph /  16.3 km/h 12.6 mph /  20.3 km/h 98 % 0.3 in /  7.62 mm
01:48 8.0 °F /  -13.3 °C 8.0 °F /  -13.3 °C 1027.0 in /  34774.2 hPa SSW 9.0 mph /  14.5 km/h 12.2 mph /  19.6 km/h 98 % 0.3 in /  7.62 mm
01:53 8.0 °F /  -13.3 °C 8.0 °F /  -13.3 °C 1027.0 in /  34774.2 hPa WSW 8.7 mph /  14 km/h 11.6 mph /  18.7 km/h 98 % 0.3 in /  7.62 mm
01:58 8.1 °F /  -13.3 °C 8.0 °F /  -13.3 °C 1027.0 in /  34774.2 hPa SW 13.7 mph /  22 km/h 13.7 mph /  22 km/h 98 % 0.3 in /  7.62 mm
02:03 8.1 °F /  -13.3 °C 8.0 °F /  -13.3 °C 1027.0 in /  34774.2 hPa WSW 13.0 mph /  20.9 km/h 14.0 mph /  22.5 km/h 98 % 0.3 in /  7.62 mm
02:08 8.1 °F /  -13.3 °C 8.0 °F /  -13.3 °C 1027.0 in /  34774.2 hPa WSW 11.9 mph /  19.2 km/h 14.0 mph /  22.5 km/h 98 % 0.3 in /  7.62 mm
02:13 8.1 °F /  -13.3 °C 8.0 °F /  -13.3 °C 1027.0 in /  34774.2 hPa SW 13.7 mph /  22 km/h 14.8 mph /  23.8 km/h 98 % 0.3 in /  7.62 mm
02:18 8.2 °F /  -13.2 °C 8.0 °F /  -13.3 °C 1027.0 in /  34774.2 hPa WSW 12.6 mph /  20.3 km/h 16.9 mph /  27.2 km/h 98 % 0.3 in /  7.62 mm
02:23 8.3 °F /  -13.2 °C 9.0 °F /  -12.8 °C 1027.0 in /  34774.2 hPa SW 11.6 mph /  18.7 km/h 20.6 mph /  33.2 km/h 98 % 0.0 in /  0 mm
02:28 8.4 °F /  -13.1 °C 9.0 °F /  -12.8 °C 1027.0 in /  34774.2 hPa WSW 10.5 mph /  16.9 km/h 20.6 mph /  33.2 km/h 98 % 0.0 in /  0 mm
02:33 8.4 °F /  -13.1 °C 9.0 °F /  -12.8 °C 1027.0 in /  34774.2 hPa WSW 10.1 mph /  16.3 km/h 19.5 mph /  31.4 km/h 98 % 0.0 in /  0 mm
02:34 8.4 °F /  -13.1 °C 9.0 °F /  -12.8 °C 1027.0 in /  34774.2 hPa SW 10.5 mph /  16.9 km/h 19.5 mph /  31.4 km/h 98 % 0.0 in /  0 mm
02:39 8.5 °F /  -13.1 °C 9.0 °F /  -12.8 °C 1027.0 in /  34774.2 hPa SSW 14.0 mph /  22.5 km/h 19.5 mph /  31.4 km/h 98 % 0.0 in /  0 mm
02:44 8.5 °F /  -13.1 °C 9.0 °F /  -12.8 °C 1027.0 in /  34774.2 hPa WSW 12.2 mph /  19.6 km/h 17.7 mph /  28.5 km/h 98 % 0.0 in /  0 mm
02:49 8.6 °F /  -13 °C 9.0 °F /  -12.8 °C 1027.0 in /  34774.2 hPa SW 9.7 mph /  15.6 km/h 17.7 mph /  28.5 km/h 98 % 0.0 in /  0 mm
02:54 8.7 °F /  -12.9 °C 9.0 °F /  -12.8 °C 1027.0 in /  34774.2 hPa SW 9.3 mph /  15 km/h 17.2 mph /  27.7 km/h 98 % 0.0 in /  0 mm
02:59 8.7 °F /  -12.9 °C 9.0 °F /  -12.8 °C 1027.0 in /  34774.2 hPa WSW 10.5 mph /  16.9 km/h 16.9 mph /  27.2 km/h 98 % 0.0 in /  0 mm
03:04 8.8 °F /  -12.9 °C 9.0 °F /  -12.8 °C 1027.0 in /  34774.2 hPa WSW 9.7 mph /  15.6 km/h 18.0 mph /  29 km/h 98 % 0.0 in /  0 mm
03:09 8.9 °F /  -12.8 °C 9.0 °F /  -12.8 °C 1027.0 in /  34774.2 hPa SW 12.6 mph /  20.3 km/h 18.0 mph /  29 km/h 98 % 0.0 in /  0 mm
03:14 9.0 °F /  -12.8 °C 9.0 °F /  -12.8 °C 1027.0 in /  34774.2 hPa SW 16.6 mph /  26.7 km/h 17.7 mph /  28.5 km/h 98 % 0.0 in /  0 mm
03:19 9.1 °F /  -12.7 °C 9.0 °F /  -12.8 °C 1027.0 in /  34774.2 hPa SW 15.4 mph /  24.8 km/h 23.3 mph /  37.5 km/h 98 % 0.0 in /  0 mm
03:24 9.2 °F /  -12.7 °C 9.0 °F /  -12.8 °C 1027.0 in /  34774.2 hPa WSW 13.0 mph /  20.9 km/h 23.3 mph /  37.5 km/h 98 % 0.0 in /  0 mm
03:29 9.2 °F /  -12.7 °C 9.0 °F /  -12.8 °C 1028.0 in /  34808.1 hPa SSW 14.8 mph /  23.8 km/h 17.2 mph /  27.7 km/h 98 % 0.0 in /  0 mm
03:35 9.2 °F /  -12.7 °C 9.0 °F /  -12.8 °C 1028.0 in /  34808.1 hPa SW 8.7 mph /  14 km/h 15.8 mph /  25.4 km/h 98 % 0.0 in /  0 mm
03:40 9.3 °F /  -12.6 °C 9.0 °F /  -12.8 °C 1028.0 in /  34808.1 hPa WSW 9.0 mph /  14.5 km/h 14.0 mph /  22.5 km/h 98 % 0.0 in /  0 mm
03:45 9.3 °F /  -12.6 °C 9.0 °F /  -12.8 °C 1027.0 in /  34774.2 hPa WSW 13.7 mph /  22 km/h 15.1 mph /  24.3 km/h 98 % 0.0 in /  0 mm
03:50 9.4 °F /  -12.6 °C 9.0 °F /  -12.8 °C 1027.0 in /  34774.2 hPa WSW 13.0 mph /  20.9 km/h 17.2 mph /  27.7 km/h 98 % 0.0 in /  0 mm
03:55 9.4 °F /  -12.6 °C 9.0 °F /  -12.8 °C 1027.0 in /  34774.2 hPa WSW 16.6 mph /  26.7 km/h 17.2 mph /  27.7 km/h 98 % 0.0 in /  0 mm
04:00 9.4 °F /  -12.6 °C 9.0 °F /  -12.8 °C 1028.0 in /  34808.1 hPa WSW 13.0 mph /  20.9 km/h 16.6 mph /  26.7 km/h 98 % 0.0 in /  0 mm
04:05 9.4 °F /  -12.6 °C 9.0 °F /  -12.8 °C 1028.0 in /  34808.1 hPa SW 11.6 mph /  18.7 km/h 15.4 mph /  24.8 km/h 98 % 0.0 in /  0 mm
04:10 9.4 °F /  -12.6 °C 9.0 °F /  -12.8 °C 1028.0 in /  34808.1 hPa WSW 12.2 mph /  19.6 km/h 15.1 mph /  24.3 km/h 98 % 0.0 in /  0 mm
04:15 9.5 °F /  -12.5 °C 10.0 °F /  -12.2 °C 1028.0 in /  34808.1 hPa WSW 15.1 mph /  24.3 km/h 15.1 mph /  24.3 km/h 98 % 0.0 in /  0 mm
04:20 9.5 °F /  -12.5 °C 10.0 °F /  -12.2 °C 1028.0 in /  34808.1 hPa WSW 12.6 mph /  20.3 km/h 17.7 mph /  28.5 km/h 98 % 0.0 in /  0 mm
04:25 9.6 °F /  -12.4 °C 10.0 °F /  -12.2 °C 1028.0 in /  34808.1 hPa WSW 16.9 mph /  27.2 km/h 18.3 mph /  29.5 km/h 98 % 0.0 in /  0 mm
04:30 9.7 °F /  -12.4 °C 10.0 °F /  -12.2 °C 1028.0 in /  34808.1 hPa WSW 16.3 mph /  26.2 km/h 18.3 mph /  29.5 km/h 98 % 0.0 in /  0 mm
04:35 9.7 °F /  -12.4 °C 10.0 °F /  -12.2 °C 1028.0 in /  34808.1 hPa WSW 17.7 mph /  28.5 km/h 20.9 mph /  33.6 km/h 98 % 0.0 in /  0 mm
04:40 9.8 °F /  -12.3 °C 10.0 °F /  -12.2 °C 1028.0 in /  34808.1 hPa WSW 16.9 mph /  27.2 km/h 20.9 mph /  33.6 km/h 98 % 0.0 in /  0 mm
04:45 9.9 °F /  -12.3 °C 10.0 °F /  -12.2 °C 1027.0 in /  34774.2 hPa West 17.2 mph /  27.7 km/h 21.6 mph /  34.8 km/h 98 % 0.0 in /  0 mm
04:50 10.0 °F /  -12.2 °C 10.0 °F /  -12.2 °C 1027.0 in /  34774.2 hPa WSW 16.3 mph /  26.2 km/h 21.6 mph /  34.8 km/h 98 % 0.0 in /  0 mm
04:55 10.0 °F /  -12.2 °C 10.0 °F /  -12.2 °C 1027.0 in /  34774.2 hPa WSW 16.6 mph /  26.7 km/h 19.5 mph /  31.4 km/h 98 % 0.0 in /  0 mm
05:00 10.0 °F /  -12.2 °C 10.0 °F /  -12.2 °C 1028.0 in /  34808.1 hPa WSW 13.7 mph /  22 km/h 19.5 mph /  31.4 km/h 98 % 0.0 in /  0 mm
05:05 10.1 °F /  -12.2 °C 10.0 °F /  -12.2 °C 1028.0 in /  34808.1 hPa West 15.1 mph /  24.3 km/h 21.2 mph /  34.1 km/h 98 % 0.0 in /  0 mm
05:11 10.1 °F /  -12.2 °C 10.0 °F /  -12.2 °C 1028.0 in /  34808.1 hPa WSW 17.7 mph /  28.5 km/h 21.2 mph /  34.1 km/h 98 % 0.0 in /  0 mm
05:16 10.2 °F /  -12.1 °C 10.0 °F /  -12.2 °C 1028.0 in /  34808.1 hPa WSW 11.6 mph /  18.7 km/h 22.7 mph /  36.5 km/h 98 % 0.0 in /  0 mm
05:21 10.2 °F /  -12.1 °C 10.0 °F /  -12.2 °C 1028.0 in /  34808.1 hPa WSW 13.7 mph /  22 km/h 22.7 mph /  36.5 km/h 98 % 0.0 in /  0 mm
05:26 10.2 °F /  -12.1 °C 10.0 °F /  -12.2 °C 1028.0 in /  34808.1 hPa WSW 15.8 mph /  25.4 km/h 21.2 mph /  34.1 km/h 98 % 0.0 in /  0 mm
05:31 10.2 °F /  -12.1 °C 10.0 °F /  -12.2 °C 1028.0 in /  34808.1 hPa WSW 12.2 mph /  19.6 km/h 19.5 mph /  31.4 km/h 98 % 0.0 in /  0 mm
05:36 10.2 °F /  -12.1 °C 10.0 °F /  -12.2 °C 1028.0 in /  34808.1 hPa West 12.2 mph /  19.6 km/h 17.7 mph /  28.5 km/h 98 % 0.0 in /  0 mm
05:41 10.2 °F /  -12.1 °C 10.0 °F /  -12.2 °C 1028.0 in /  34808.1 hPa WSW 10.1 mph /  16.3 km/h 16.9 mph /  27.2 km/h 98 % 0.0 in /  0 mm
05:46 10.3 °F /  -12.1 °C 10.0 °F /  -12.2 °C 1029.0 in /  34841.9 hPa WSW 10.1 mph /  16.3 km/h 16.9 mph /  27.2 km/h 98 % 0.0 in /  0 mm
05:51 10.3 °F /  -12.1 °C 10.0 °F /  -12.2 °C 1029.0 in /  34841.9 hPa West 9.0 mph /  14.5 km/h 16.9 mph /  27.2 km/h 98 % 0.0 in /  0 mm
05:56 10.3 °F /  -12.1 °C 10.0 °F /  -12.2 °C 1029.0 in /  34841.9 hPa WSW 11.1 mph /  17.9 km/h 17.2 mph /  27.7 km/h 98 % 0.0 in /  0 mm
06:01 10.3 °F /  -12.1 °C 10.0 °F /  -12.2 °C 1029.0 in /  34841.9 hPa West 10.5 mph /  16.9 km/h 17.2 mph /  27.7 km/h 98 % 0.0 in /  0 mm
06:06 10.4 °F /  -12 °C 10.0 °F /  -12.2 °C 1029.0 in /  34841.9 hPa West 15.4 mph /  24.8 km/h 16.3 mph /  26.2 km/h 98 % 0.0 in /  0 mm
06:11 10.4 °F /  -12 °C 10.0 °F /  -12.2 °C 1029.0 in /  34841.9 hPa WNW 9.7 mph /  15.6 km/h 16.3 mph /  26.2 km/h 98 % 0.0 in /  0 mm
06:16 10.4 °F /  -12 °C 10.0 °F /  -12.2 °C 1029.0 in /  34841.9 hPa WSW 12.2 mph /  19.6 km/h 16.6 mph /  26.7 km/h 98 % 0.0 in /  0 mm
06:21 10.4 °F /  -12 °C 10.0 °F /  -12.2 °C 1029.0 in /  34841.9 hPa WSW 15.4 mph /  24.8 km/h 17.2 mph /  27.7 km/h 98 % 0.0 in /  0 mm
06:26 10.4 °F /  -12 °C 10.0 °F /  -12.2 °C 1029.0 in /  34841.9 hPa West 16.9 mph /  27.2 km/h 17.2 mph /  27.7 km/h 98 % 0.0 in /  0 mm
06:31 10.5 °F /  -11.9 °C 11.0 °F /  -11.7 °C 1029.0 in /  34841.9 hPa West 16.3 mph /  26.2 km/h 20.6 mph /  33.2 km/h 98 % 0.0 in /  0 mm
06:36 10.5 °F /  -11.9 °C 11.0 °F /  -11.7 °C 1029.0 in /  34841.9 hPa WSW 15.1 mph /  24.3 km/h 20.9 mph /  33.6 km/h 98 % 0.0 in /  0 mm
06:37 10.5 °F /  -11.9 °C 11.0 °F /  -11.7 °C 1029.0 in /  34841.9 hPa West 16.9 mph /  27.2 km/h 20.9 mph /  33.6 km/h 98 % 0.0 in /  0 mm
06:42 10.5 °F /  -11.9 °C 11.0 °F /  -11.7 °C 1029.0 in /  34841.9 hPa West 10.1 mph /  16.3 km/h 20.9 mph /  33.6 km/h 98 % 0.0 in /  0 mm
06:48 10.5 °F /  -11.9 °C 11.0 °F /  -11.7 °C 1029.0 in /  34841.9 hPa WSW 14.0 mph /  22.5 km/h 16.9 mph /  27.2 km/h 98 % 0.0 in /  0 mm
06:53 10.5 °F /  -11.9 °C 11.0 °F /  -11.7 °C 1029.0 in /  34841.9 hPa WSW 12.6 mph /  20.3 km/h 19.5 mph /  31.4 km/h 98 % 0.0 in /  0 mm
06:58 10.4 °F /  -12 °C 10.0 °F /  -12.2 °C 1029.0 in /  34841.9 hPa WSW 9.3 mph /  15 km/h 19.5 mph /  31.4 km/h 98 % 0.0 in /  0 mm
07:03 10.4 °F /  -12 °C 10.0 °F /  -12.2 °C 1028.0 in /  34808.1 hPa WSW 13.0 mph /  20.9 km/h 18.0 mph /  29 km/h 98 % 0.0 in /  0 mm
07:08 10.4 °F /  -12 °C 10.0 °F /  -12.2 °C 1028.0 in /  34808.1 hPa WSW 9.3 mph /  15 km/h 16.6 mph /  26.7 km/h 98 % 0.0 in /  0 mm
07:13 10.4 °F /  -12 °C 10.0 °F /  -12.2 °C 1028.0 in /  34808.1 hPa WSW 11.6 mph /  18.7 km/h 15.8 mph /  25.4 km/h 98 % 0.0 in /  0 mm
07:18 10.4 °F /  -12 °C 10.0 °F /  -12.2 °C 1029.0 in /  34841.9 hPa WSW 13.0 mph /  20.9 km/h 15.8 mph /  25.4 km/h 98 % 0.0 in /  0 mm
07:23 10.4 °F /  -12 °C 10.0 °F /  -12.2 °C 1029.0 in /  34841.9 hPa WSW 9.3 mph /  15 km/h 14.3 mph /  23 km/h 98 % 0.0 in /  0 mm
07:28 10.4 °F /  -12 °C 10.0 °F /  -12.2 °C 1029.0 in /  34841.9 hPa WSW 10.5 mph /  16.9 km/h 14.0 mph /  22.5 km/h 98 % 0.0 in /  0 mm
07:33 10.5 °F /  -11.9 °C 11.0 °F /  -11.7 °C 1029.0 in /  34841.9 hPa WSW 19.8 mph /  31.9 km/h 22.7 mph /  36.5 km/h 98 % 0.0 in /  0 mm
07:38 10.6 °F /  -11.9 °C 11.0 °F /  -11.7 °C 1029.0 in /  34841.9 hPa WSW 16.3 mph /  26.2 km/h 22.7 mph /  36.5 km/h 98 % 0.0 in /  0 mm
07:43 10.6 °F /  -11.9 °C 11.0 °F /  -11.7 °C 1029.0 in /  34841.9 hPa WSW 19.8 mph /  31.9 km/h 23.8 mph /  38.3 km/h 98 % 0.0 in /  0 mm
07:48 10.6 °F /  -11.9 °C 11.0 °F /  -11.7 °C 1029.0 in /  34841.9 hPa WSW 16.3 mph /  26.2 km/h 23.8 mph /  38.3 km/h 98 % 0.0 in /  0 mm
07:53 10.6 °F /  -11.9 °C 11.0 °F /  -11.7 °C 1029.0 in /  34841.9 hPa WSW 10.8 mph /  17.4 km/h 24.5 mph /  39.4 km/h 98 % 0.0 in /  0 mm
07:58 10.6 °F /  -11.9 °C 11.0 °F /  -11.7 °C 1029.0 in /  34841.9 hPa WSW 16.3 mph /  26.2 km/h 24.5 mph /  39.4 km/h 98 % 0.0 in /  0 mm
08:03 10.6 °F /  -11.9 °C 11.0 °F /  -11.7 °C 1030.0 in /  34875.8 hPa WSW 9.0 mph /  14.5 km/h 17.7 mph /  28.5 km/h 98 % 0.0 in /  0 mm
08:08 10.5 °F /  -11.9 °C 11.0 °F /  -11.7 °C 1030.0 in /  34875.8 hPa WSW 10.5 mph /  16.9 km/h 17.7 mph /  28.5 km/h 98 % 0.0 in /  0 mm
08:13 10.5 °F /  -11.9 °C 11.0 °F /  -11.7 °C 1030.0 in /  34875.8 hPa WSW 13.7 mph /  22 km/h 16.3 mph /  26.2 km/h 98 % 0.0 in /  0 mm
08:18 10.5 °F /  -11.9 °C 11.0 °F /  -11.7 °C 1030.0 in /  34875.8 hPa WSW 10.1 mph /  16.3 km/h 19.8 mph /  31.9 km/h 98 % 0.0 in /  0 mm
08:23 10.4 °F /  -12 °C 10.0 °F /  -12.2 °C 1030.0 in /  34875.8 hPa WSW 10.1 mph /  16.3 km/h 19.8 mph /  31.9 km/h 98 % 0.0 in /  0 mm
08:28 10.4 °F /  -12 °C 10.0 °F /  -12.2 °C 1030.0 in /  34875.8 hPa Calm   11.6 mph /  18.7 km/h 98 % 0.0 in /  0 mm
08:33 10.4 °F /  -12 °C 10.0 °F /  -12.2 °C 1030.0 in /  34875.8 hPa SW 8.7 mph /  14 km/h 11.9 mph /  19.2 km/h 98 % 0.0 in /  0 mm
08:38 10.4 °F /  -12 °C 10.0 °F /  -12.2 °C 1030.0 in /  34875.8 hPa WSW 12.2 mph /  19.6 km/h 14.0 mph /  22.5 km/h 98 % 0.0 in /  0 mm
08:43 10.4 °F /  -12 °C 10.0 °F /  -12.2 °C 1030.0 in /  34875.8 hPa WSW 17.2 mph /  27.7 km/h 17.2 mph /  27.7 km/h 98 % 0.0 in /  0 mm
08:48 10.4 °F /  -12 °C 10.0 °F /  -12.2 °C 1030.0 in /  34875.8 hPa WSW 13.7 mph /  22 km/h 17.2 mph /  27.7 km/h 98 % 0.0 in /  0 mm
08:53 10.5 °F /  -11.9 °C 11.0 °F /  -11.7 °C 1030.0 in /  34875.8 hPa WSW 14.0 mph /  22.5 km/h 21.2 mph /  34.1 km/h 98 % 0.0 in /  0 mm
08:58 10.5 °F /  -11.9 °C 11.0 °F /  -11.7 °C 1031.0 in /  34909.7 hPa WSW 13.0 mph /  20.9 km/h 21.2 mph /  34.1 km/h 98 % 0.0 in /  0 mm
09:03 10.6 °F /  -11.9 °C 11.0 °F /  -11.7 °C 1031.0 in /  34909.7 hPa WSW 12.6 mph /  20.3 km/h 19.5 mph /  31.4 km/h 98 % 0.0 in /  0 mm
09:08 10.6 °F /  -11.9 °C 11.0 °F /  -11.7 °C 1031.0 in /  34909.7 hPa WSW 11.9 mph /  19.2 km/h 17.2 mph /  27.7 km/h 98 % 0.0 in /  0 mm
09:13 10.6 °F /  -11.9 °C 11.0 °F /  -11.7 °C 1031.0 in /  34909.7 hPa WSW 20.9 mph /  33.6 km/h 20.9 mph /  33.6 km/h 98 % 0.0 in /  0 mm
09:18 10.6 °F /  -11.9 °C 11.0 °F /  -11.7 °C 1031.0 in /  34909.7 hPa West 23.3 mph /  37.5 km/h 24.8 mph /  39.9 km/h 98 % 0.0 in /  0 mm
09:24 10.7 °F /  -11.8 °C 11.0 °F /  -11.7 °C 1031.0 in /  34909.7 hPa West 16.9 mph /  27.2 km/h 24.8 mph /  39.9 km/h 98 % 0.0 in /  0 mm
09:29 10.7 °F /  -11.8 °C 11.0 °F /  -11.7 °C 1031.0 in /  34909.7 hPa West 15.8 mph /  25.4 km/h 24.8 mph /  39.9 km/h 98 % 0.0 in /  0 mm
09:34 10.8 °F /  -11.8 °C 11.0 °F /  -11.7 °C 1031.0 in /  34909.7 hPa West 13.0 mph /  20.9 km/h 23.8 mph /  38.3 km/h 98 % 0.0 in /  0 mm
09:39 10.8 °F /  -11.8 °C 11.0 °F /  -11.7 °C 1031.0 in /  34909.7 hPa West 12.6 mph /  20.3 km/h 20.6 mph /  33.2 km/h 98 % 0.0 in /  0 mm
09:44 10.8 °F /  -11.8 °C 11.0 °F /  -11.7 °C 1031.0 in /  34909.7 hPa WSW 13.7 mph /  22 km/h 24.8 mph /  39.9 km/h 98 % 0.0 in /  0 mm
09:49 10.8 °F /  -11.8 °C 11.0 °F /  -11.7 °C 1031.0 in /  34909.7 hPa WSW 15.8 mph /  25.4 km/h 24.8 mph /  39.9 km/h 98 % 0.0 in /  0 mm
09:54 10.8 °F /  -11.8 °C 11.0 °F /  -11.7 °C 1031.0 in /  34909.7 hPa WSW 19.1 mph /  30.7 km/h 21.2 mph /  34.1 km/h 98 % 0.0 in /  0 mm
09:59 10.9 °F /  -11.7 °C 11.0 °F /  -11.7 °C 1032.1 in /  34946.9 hPa West 16.3 mph /  26.2 km/h 21.2 mph /  34.1 km/h 98 % 0.0 in /  0 mm
10:04 10.9 °F /  -11.7 °C 11.0 °F /  -11.7 °C 1032.1 in /  34946.9 hPa WSW 13.0 mph /  20.9 km/h 19.1 mph /  30.7 km/h 98 % 0.0 in /  0 mm
10:09 10.9 °F /  -11.7 °C 11.0 °F /  -11.7 °C 1032.1 in /  34946.9 hPa WSW 12.2 mph /  19.6 km/h 17.2 mph /  27.7 km/h 98 % 0.0 in /  0 mm
10:14 11.0 °F /  -11.7 °C 11.0 °F /  -11.7 °C 1030.0 in /  34875.8 hPa WSW 13.0 mph /  20.9 km/h 17.2 mph /  27.7 km/h 98 % 0.0 in /  0 mm
10:19 11.0 °F /  -11.7 °C 11.0 °F /  -11.7 °C 1030.0 in /  34875.8 hPa WSW 13.7 mph /  22 km/h 20.9 mph /  33.6 km/h 98 % 0.0 in /  0 mm
10:24 11.0 °F /  -11.7 °C 11.0 °F /  -11.7 °C 1030.0 in /  34875.8 hPa West 21.2 mph /  34.1 km/h 21.6 mph /  34.8 km/h 98 % 0.0 in /  0 mm
10:29 11.1 °F /  -11.6 °C 11.0 °F /  -11.7 °C 1031.0 in /  34909.7 hPa WSW 17.7 mph /  28.5 km/h 21.6 mph /  34.8 km/h 98 % 0.0 in /  0 mm
10:34 11.1 °F /  -11.6 °C 11.0 °F /  -11.7 °C 1031.0 in /  34909.7 hPa West 16.3 mph /  26.2 km/h 21.9 mph /  35.2 km/h 98 % 0.0 in /  0 mm
10:39 11.2 °F /  -11.6 °C 11.0 °F /  -11.7 °C 1031.0 in /  34909.7 hPa WSW 14.0 mph /  22.5 km/h 21.9 mph /  35.2 km/h 98 % 0.0 in /  0 mm
10:45 11.2 °F /  -11.6 °C 11.0 °F /  -11.7 °C 1030.0 in /  34875.8 hPa West 13.7 mph /  22 km/h 21.2 mph /  34.1 km/h 98 % 0.0 in /  0 mm
10:50 11.3 °F /  -11.5 °C 11.0 °F /  -11.7 °C 1030.0 in /  34875.8 hPa WSW 11.9 mph /  19.2 km/h 20.6 mph /  33.2 km/h 98 % 0.0 in /  0 mm
10:55 11.4 °F /  -11.4 °C 11.0 °F /  -11.7 °C 1030.0 in /  34875.8 hPa West 15.8 mph /  25.4 km/h 20.9 mph /  33.6 km/h 98 % 0.0 in /  0 mm
11:00 11.4 °F /  -11.4 °C 11.0 °F /  -11.7 °C 1031.0 in /  34909.7 hPa West 17.2 mph /  27.7 km/h 27.0 mph /  43.5 km/h 98 % 0.0 in /  0 mm
11:05 11.4 °F /  -11.4 °C 11.0 °F /  -11.7 °C 1031.0 in /  34909.7 hPa West 12.6 mph /  20.3 km/h 27.0 mph /  43.5 km/h 97 % 0.0 in /  0 mm
11:10 11.5 °F /  -11.4 °C 11.0 °F /  -11.7 °C 1031.0 in /  34909.7 hPa West 15.8 mph /  25.4 km/h 25.3 mph /  40.7 km/h 97 % 0.0 in /  0 mm
11:15 11.5 °F /  -11.4 °C 11.0 °F /  -11.7 °C 1031.0 in /  34909.7 hPa WSW 21.2 mph /  34.1 km/h 25.3 mph /  40.7 km/h 96 % 0.0 in /  0 mm
11:20 11.5 °F /  -11.4 °C 11.0 °F /  -11.7 °C 1031.0 in /  34909.7 hPa WSW 17.7 mph /  28.5 km/h 27.4 mph /  44.1 km/h 95 % 0.0 in /  0 mm
11:25 11.6 °F /  -11.3 °C 11.0 °F /  -11.7 °C 1031.0 in /  34909.7 hPa West 16.3 mph /  26.2 km/h 32.0 mph /  51.5 km/h 95 % 0.0 in /  0 mm
11:30 11.7 °F /  -11.3 °C 11.0 °F /  -11.7 °C 1031.0 in /  34909.7 hPa West 11.1 mph /  17.9 km/h 32.0 mph /  51.5 km/h 94 % 0.0 in /  0 mm
11:35 11.7 °F /  -11.3 °C 11.0 °F /  -11.7 °C 1031.0 in /  34909.7 hPa West 17.7 mph /  28.5 km/h 24.5 mph /  39.4 km/h 95 % 0.0 in /  0 mm
11:40 11.8 °F /  -11.2 °C 11.0 °F /  -11.7 °C 1031.0 in /  34909.7 hPa WSW 20.1 mph /  32.3 km/h 30.9 mph /  49.7 km/h 94 % 0.0 in /  0 mm
11:45 11.9 °F /  -11.2 °C 11.0 °F /  -11.7 °C 1031.0 in /  34909.7 hPa WSW 19.5 mph /  31.4 km/h 35.6 mph /  57.3 km/h 93 % 0.0 in /  0 mm
11:50 11.9 °F /  -11.2 °C 11.0 °F /  -11.7 °C 1031.0 in /  34909.7 hPa West 20.9 mph /  33.6 km/h 35.6 mph /  57.3 km/h 93 % 0.0 in /  0 mm
11:55 12.0 °F /  -11.1 °C 11.0 °F /  -11.7 °C 1031.0 in /  34909.7 hPa WSW 23.8 mph /  38.3 km/h 33.8 mph /  54.4 km/h 92 % 0.0 in /  0 mm
12:00 12.0 °F /  -11.1 °C 11.0 °F /  -11.7 °C 1030.0 in /  34875.8 hPa West 16.9 mph /  27.2 km/h 33.8 mph /  54.4 km/h 93 % 0.0 in /  0 mm
12:06 12.0 °F /  -11.1 °C 11.0 °F /  -11.7 °C 1030.0 in /  34875.8 hPa WSW 17.7 mph /  28.5 km/h 33.5 mph /  53.9 km/h 93 % 0.0 in /  0 mm
12:11 12.1 °F /  -11.1 °C 11.0 °F /  -11.7 °C 1030.0 in /  34875.8 hPa WSW 21.2 mph /  34.1 km/h 33.5 mph /  53.9 km/h 92 % 0.0 in /  0 mm
12:16 12.2 °F /  -11 °C 11.0 °F /  -11.7 °C 1031.0 in /  34909.7 hPa WSW 19.1 mph /  30.7 km/h 31.7 mph /  51 km/h 92 % 0.0 in /  0 mm
12:21 12.2 °F /  -11 °C 11.0 °F /  -11.7 °C 1031.0 in /  34909.7 hPa West 20.9 mph /  33.6 km/h 36.0 mph /  57.9 km/h 92 % 0.0 in /  0 mm
12:26 12.2 °F /  -11 °C 11.0 °F /  -11.7 °C 1031.0 in /  34909.7 hPa WSW 23.8 mph /  38.3 km/h 36.0 mph /  57.9 km/h 92 % 0.0 in /  0 mm
12:31 12.2 °F /  -11 °C 11.0 °F /  -11.7 °C 1031.0 in /  34909.7 hPa West 18.0 mph /  29 km/h 29.1 mph /  46.8 km/h 92 % 0.0 in /  0 mm
12:36 12.2 °F /  -11 °C 11.0 °F /  -11.7 °C 1031.0 in /  34909.7 hPa West 16.6 mph /  26.7 km/h 35.6 mph /  57.3 km/h 92 % 0.0 in /  0 mm
12:41 12.1 °F /  -11.1 °C 11.0 °F /  -11.7 °C 1031.0 in /  34909.7 hPa West 15.8 mph /  25.4 km/h 35.6 mph /  57.3 km/h 92 % 0.0 in /  0 mm
12:46 12.2 °F /  -11 °C 11.0 °F /  -11.7 °C 1031.0 in /  34909.7 hPa West 24.8 mph /  39.9 km/h 35.2 mph /  56.6 km/h 92 % 0.0 in /  0 mm
12:51 12.1 °F /  -11.1 °C 11.0 °F /  -11.7 °C 1031.0 in /  34909.7 hPa West 27.7 mph /  44.6 km/h 35.2 mph /  56.6 km/h 92 % 0.0 in /  0 mm
12:56 12.1 °F /  -11.1 °C 11.0 °F /  -11.7 °C 1031.0 in /  34909.7 hPa West 20.6 mph /  33.2 km/h 33.8 mph /  54.4 km/h 93 % 0.0 in /  0 mm
13:01 12.1 °F /  -11.1 °C 11.0 °F /  -11.7 °C 1031.0 in /  34909.7 hPa West 17.7 mph /  28.5 km/h 27.4 mph /  44.1 km/h 93 % 0.0 in /  0 mm
13:06 12.1 °F /  -11.1 °C 11.0 °F /  -11.7 °C 1031.0 in /  34909.7 hPa West 28.0 mph /  45.1 km/h 42.5 mph /  68.4 km/h 93 % 0.0 in /  0 mm
13:11 12.1 °F /  -11.1 °C 11.0 °F /  -11.7 °C 1031.0 in /  34909.7 hPa WSW 21.9 mph /  35.2 km/h 42.5 mph /  68.4 km/h 93 % 0.0 in /  0 mm
13:16 12.1 °F /  -11.1 °C 11.0 °F /  -11.7 °C 1031.0 in /  34909.7 hPa West 23.3 mph /  37.5 km/h 33.5 mph /  53.9 km/h 93 % 0.0 in /  0 mm
13:21 12.1 °F /  -11.1 °C 11.0 °F /  -11.7 °C 1031.0 in /  34909.7 hPa West 17.2 mph /  27.7 km/h 28.5 mph /  45.9 km/h 93 % 0.0 in /  0 mm
13:26 12.0 °F /  -11.1 °C 11.0 °F /  -11.7 °C 1031.0 in /  34909.7 hPa West 32.0 mph /  51.5 km/h 33.5 mph /  53.9 km/h 93 % 0.0 in /  0 mm
13:31 11.9 °F /  -11.2 °C 11.0 °F /  -11.7 °C 1031.0 in /  34909.7 hPa West 30.2 mph /  48.6 km/h 33.5 mph /  53.9 km/h 93 % 0.0 in /  0 mm
13:36 11.9 °F /  -11.2 °C 11.0 °F /  -11.7 °C 1031.0 in /  34909.7 hPa West 20.9 mph /  33.6 km/h 32.8 mph /  52.8 km/h 93 % 0.0 in /  0 mm
13:41 11.8 °F /  -11.2 °C 11.0 °F /  -11.7 °C 1031.0 in /  34909.7 hPa West 23.8 mph /  38.3 km/h 36.0 mph /  57.9 km/h 93 % 0.0 in /  0 mm
13:46 11.8 °F /  -11.2 °C 11.0 °F /  -11.7 °C 1031.0 in /  34909.7 hPa West 27.0 mph /  43.5 km/h 37.0 mph /  59.5 km/h 93 % 0.0 in /  0 mm
13:51 11.8 °F /  -11.2 °C 11.0 °F /  -11.7 °C 1031.0 in /  34909.7 hPa WSW 24.5 mph /  39.4 km/h 37.0 mph /  59.5 km/h 93 % 0.0 in /  0 mm
13:56 11.8 °F /  -11.2 °C 11.0 °F /  -11.7 °C 1031.0 in /  34909.7 hPa West 21.6 mph /  34.8 km/h 31.4 mph /  50.5 km/h 93 % 0.0 in /  0 mm
14:01 11.7 °F /  -11.3 °C 11.0 °F /  -11.7 °C 1031.0 in /  34909.7 hPa WSW 30.9 mph /  49.7 km/h 36.7 mph /  59.1 km/h 93 % 0.0 in /  0 mm
14:06 11.8 °F /  -11.2 °C 11.0 °F /  -11.7 °C 1031.0 in /  34909.7 hPa WSW 28.5 mph /  45.9 km/h 36.7 mph /  59.1 km/h 93 % 0.0 in /  0 mm
14:11 11.9 °F /  -11.2 °C 11.0 °F /  -11.7 °C 1031.0 in /  34909.7 hPa West 13.7 mph /  22 km/h 31.4 mph /  50.5 km/h 93 % 0.0 in /  0 mm
14:16 12.0 °F /  -11.1 °C 11.0 °F /  -11.7 °C 1030.0 in /  34875.8 hPa West 13.7 mph /  22 km/h 28.5 mph /  45.9 km/h 93 % 0.0 in /  0 mm
14:21 12.1 °F /  -11.1 °C 11.0 °F /  -11.7 °C 1030.0 in /  34875.8 hPa West 13.7 mph /  22 km/h 13.7 mph /  22 km/h 93 % 0.0 in /  0 mm
14:26 12.1 °F /  -11.1 °C 11.0 °F /  -11.7 °C 1030.0 in /  34875.8 hPa West 13.7 mph /  22 km/h 13.7 mph /  22 km/h 92 % 0.0 in /  0 mm
14:31 12.1 °F /  -11.1 °C 11.0 °F /  -11.7 °C 1031.0 in /  34909.7 hPa West 13.7 mph /  22 km/h 13.7 mph /  22 km/h 92 % 0.0 in /  0 mm
14:36 11.9 °F /  -11.2 °C 11.0 °F /  -11.7 °C 1031.0 in /  34909.7 hPa West 13.7 mph /  22 km/h 13.7 mph /  22 km/h 92 % 0.0 in /  0 mm
14:42 11.9 °F /  -11.2 °C 11.0 °F /  -11.7 °C 1031.0 in /  34909.7 hPa West 13.7 mph /  22 km/h 13.7 mph /  22 km/h 92 % 0.0 in /  0 mm
14:47 11.8 °F /  -11.2 °C 11.0 °F /  -11.7 °C 1031.0 in /  34909.7 hPa West 13.7 mph /  22 km/h 13.7 mph /  22 km/h 93 % 0.0 in /  0 mm
14:52 11.8 °F /  -11.2 °C 11.0 °F /  -11.7 °C 1031.0 in /  34909.7 hPa West 13.7 mph /  22 km/h 13.7 mph /  22 km/h 93 % 0.0 in /  0 mm
14:57 11.8 °F /  -11.2 °C 11.0 °F /  -11.7 °C 1031.0 in /  34909.7 hPa West 13.7 mph /  22 km/h 13.7 mph /  22 km/h 93 % 0.0 in /  0 mm
15:02 11.7 °F /  -11.3 °C 11.0 °F /  -11.7 °C 1031.0 in /  34909.7 hPa West 13.7 mph /  22 km/h 13.7 mph /  22 km/h 93 % 0.0 in /  0 mm
15:07 11.8 °F /  -11.2 °C 11.0 °F /  -11.7 °C 1031.0 in /  34909.7 hPa WSW 16.3 mph /  26.2 km/h 16.3 mph /  26.2 km/h 93 % 0.0 in /  0 mm
15:12 11.9 °F /  -11.2 °C 11.0 °F /  -11.7 °C 1031.0 in /  34909.7 hPa WSW 16.3 mph /  26.2 km/h 16.3 mph /  26.2 km/h 93 % 0.0 in /  0 mm
15:17 11.9 °F /  -11.2 °C 11.0 °F /  -11.7 °C 1031.0 in /  34909.7 hPa WSW 16.3 mph /  26.2 km/h 16.3 mph /  26.2 km/h 92 % 0.0 in /  0 mm
15:22 11.9 °F /  -11.2 °C 11.0 °F /  -11.7 °C 1031.0 in /  34909.7 hPa WSW 29.9 mph /  48.1 km/h 29.9 mph /  48.1 km/h 92 % 0.0 in /  0 mm
15:27 11.9 °F /  -11.2 °C 11.0 °F /  -11.7 °C 1031.0 in /  34909.7 hPa WSW 36.0 mph /  57.9 km/h 36.0 mph /  57.9 km/h 92 % 0.0 in /  0 mm
15:32 11.8 °F /  -11.2 °C 10.0 °F /  -12.2 °C 1031.0 in /  34909.7 hPa West 38.5 mph /  62 km/h 38.5 mph /  62 km/h 92 % 0.0 in /  0 mm
15:37 11.7 °F /  -11.3 °C 10.0 °F /  -12.2 °C 1031.0 in /  34909.7 hPa WSW 35.2 mph /  56.6 km/h 38.5 mph /  62 km/h 92 % 0.0 in /  0 mm
15:42 11.7 °F /  -11.3 °C 10.0 °F /  -12.2 °C 1031.0 in /  34909.7 hPa West 32.0 mph /  51.5 km/h 38.5 mph /  62 km/h 92 % 0.0 in /  0 mm
15:47 11.8 °F /  -11.2 °C 11.0 °F /  -11.7 °C 1031.0 in /  34909.7 hPa West 32.0 mph /  51.5 km/h 35.2 mph /  56.6 km/h 93 % 0.0 in /  0 mm
15:52 11.8 °F /  -11.2 °C 10.0 °F /  -12.2 °C 1031.0 in /  34909.7 hPa West 32.8 mph /  52.8 km/h 32.8 mph /  52.8 km/h 92 % 0.0 in /  0 mm
15:57 11.8 °F /  -11.2 °C 10.0 °F /  -12.2 °C 1031.0 in /  34909.7 hPa West 29.9 mph /  48.1 km/h 32.8 mph /  52.8 km/h 92 % 0.0 in /  0 mm
16:03 11.8 °F /  -11.2 °C 11.0 °F /  -11.7 °C 1030.0 in /  34875.8 hPa West 29.9 mph /  48.1 km/h 32.8 mph /  52.8 km/h 93 % 0.0 in /  0 mm
16:08 11.8 °F /  -11.2 °C 11.0 °F /  -11.7 °C 1030.0 in /  34875.8 hPa West 29.9 mph /  48.1 km/h 29.9 mph /  48.1 km/h 93 % 0.0 in /  0 mm
16:13 11.8 °F /  -11.2 °C 10.0 °F /  -12.2 °C 1030.0 in /  34875.8 hPa West 29.9 mph /  48.1 km/h 29.9 mph /  48.1 km/h 92 % 0.0 in /  0 mm
16:18 11.7 °F /  -11.3 °C 10.0 °F /  -12.2 °C 1031.0 in /  34909.7 hPa West 29.9 mph /  48.1 km/h 29.9 mph /  48.1 km/h 92 % 0.0 in /  0 mm
16:23 11.7 °F /  -11.3 °C 10.0 °F /  -12.2 °C 1031.0 in /  34909.7 hPa West 29.9 mph /  48.1 km/h 29.9 mph /  48.1 km/h 92 % 0.0 in /  0 mm
16:28 11.7 °F /  -11.3 °C 10.0 °F /  -12.2 °C 1031.0 in /  34909.7 hPa West 29.9 mph /  48.1 km/h 29.9 mph /  48.1 km/h 92 % 0.0 in /  0 mm
16:33 11.6 °F /  -11.3 °C 10.0 °F /  -12.2 °C 1031.0 in /  34909.7 hPa West 29.9 mph /  48.1 km/h 29.9 mph /  48.1 km/h 92 % 0.0 in /  0 mm
16:38 11.6 °F /  -11.3 °C 10.0 °F /  -12.2 °C 1031.0 in /  34909.7 hPa WSW 36.4 mph /  58.6 km/h 36.4 mph /  58.6 km/h 92 % 0.0 in /  0 mm
16:43 11.5 °F /  -11.4 °C 10.0 °F /  -12.2 °C 1031.0 in /  34909.7 hPa West 32.0 mph /  51.5 km/h 36.4 mph /  58.6 km/h 91 % 0.0 in /  0 mm
16:48 11.5 °F /  -11.4 °C 10.0 °F /  -12.2 °C 1031.0 in /  34909.7 hPa West 27.7 mph /  44.6 km/h 36.4 mph /  58.6 km/h 92 % 0.0 in /  0 mm
16:53 11.4 °F /  -11.4 °C 10.0 °F /  -12.2 °C 1031.0 in /  34909.7 hPa WSW 20.1 mph /  32.3 km/h 32.0 mph /  51.5 km/h 93 % 0.0 in /  0 mm
16:58 11.4 °F /  -11.4 °C 10.0 °F /  -12.2 °C 1031.0 in /  34909.7 hPa WSW 24.8 mph /  39.9 km/h 38.1 mph /  61.3 km/h 93 % 0.0 in /  0 mm
17:03 11.3 °F /  -11.5 °C 10.0 °F /  -12.2 °C 1031.0 in /  34909.7 hPa WSW 27.7 mph /  44.6 km/h 38.1 mph /  61.3 km/h 94 % 0.0 in /  0 mm
17:08 11.3 °F /  -11.5 °C 10.0 °F /  -12.2 °C 1031.0 in /  34909.7 hPa WSW 20.1 mph /  32.3 km/h 28.5 mph /  45.9 km/h 94 % 0.0 in /  0 mm
17:13 11.2 °F /  -11.6 °C 10.0 °F /  -12.2 °C 1031.0 in /  34909.7 hPa WSW 32.8 mph /  52.8 km/h 36.7 mph /  59.1 km/h 94 % 0.0 in /  0 mm
17:18 11.2 °F /  -11.6 °C 10.0 °F /  -12.2 °C 1031.0 in /  34909.7 hPa WSW 27.7 mph /  44.6 km/h 36.7 mph /  59.1 km/h 94 % 0.0 in /  0 mm
17:23 11.2 °F /  -11.6 °C 10.0 °F /  -12.2 °C 1031.0 in /  34909.7 hPa WSW 21.2 mph /  34.1 km/h 38.5 mph /  62 km/h 94 % 0.0 in /  0 mm
17:28 11.2 °F /  -11.6 °C 10.0 °F /  -12.2 °C 1031.0 in /  34909.7 hPa WSW 28.8 mph /  46.3 km/h 38.5 mph /  62 km/h 94 % 0.0 in /  0 mm
17:34 11.1 °F /  -11.6 °C 10.0 °F /  -12.2 °C 1031.0 in /  34909.7 hPa WSW 16.6 mph /  26.7 km/h 30.2 mph /  48.6 km/h 94 % 0.0 in /  0 mm
17:39 11.1 °F /  -11.6 °C 10.0 °F /  -12.2 °C 1031.0 in /  34909.7 hPa WSW 27.7 mph /  44.6 km/h 30.2 mph /  48.6 km/h 94 % 0.0 in /  0 mm
17:44 11.0 °F /  -11.7 °C 10.0 °F /  -12.2 °C 1031.0 in /  34909.7 hPa WSW 28.5 mph /  45.9 km/h 32.3 mph /  52 km/h 94 % 0.0 in /  0 mm
17:49 11.0 °F /  -11.7 °C 10.0 °F /  -12.2 °C 1031.0 in /  34909.7 hPa WSW 28.5 mph /  45.9 km/h 37.0 mph /  59.5 km/h 94 % 0.0 in /  0 mm
17:54 10.9 °F /  -11.7 °C 10.0 °F /  -12.2 °C 1031.0 in /  34909.7 hPa WSW 20.6 mph /  33.2 km/h 37.0 mph /  59.5 km/h 95 % 0.0 in /  0 mm
17:59 10.9 °F /  -11.7 °C 10.0 °F /  -12.2 °C 1031.0 in /  34909.7 hPa WSW 24.5 mph /  39.4 km/h 31.4 mph /  50.5 km/h 95 % 0.0 in /  0 mm
18:04 10.9 °F /  -11.7 °C 10.0 °F /  -12.2 °C 1031.0 in /  34909.7 hPa WSW 24.5 mph /  39.4 km/h 31.7 mph /  51 km/h 95 % 0.0 in /  0 mm
18:09 10.9 °F /  -11.7 °C 11.0 °F /  -11.7 °C 1031.0 in /  34909.7 hPa WSW 16.3 mph /  26.2 km/h 31.7 mph /  51 km/h 96 % 0.0 in /  0 mm
18:14 10.9 °F /  -11.7 °C 11.0 °F /  -11.7 °C 1030.0 in /  34875.8 hPa WSW 17.7 mph /  28.5 km/h 27.7 mph /  44.6 km/h 96 % 0.0 in /  0 mm
18:19 10.8 °F /  -11.8 °C 10.0 °F /  -12.2 °C 1030.0 in /  34875.8 hPa WSW 16.9 mph /  27.2 km/h 24.5 mph /  39.4 km/h 96 % 0.0 in /  0 mm
18:24 10.8 °F /  -11.8 °C 10.0 °F /  -12.2 °C 1030.0 in /  34875.8 hPa WSW 16.3 mph /  26.2 km/h 21.2 mph /  34.1 km/h 96 % 0.0 in /  0 mm
18:28 10.8 °F /  -11.8 °C 10.0 °F /  -12.2 °C 1030.0 in /  34875.8 hPa WSW 17.2 mph /  27.7 km/h 22.4 mph /  36 km/h 96 % 0.0 in /  0 mm
18:33 10.8 °F /  -11.8 °C 10.0 °F /  -12.2 °C 1031.0 in /  34909.7 hPa WSW 15.8 mph /  25.4 km/h 23.3 mph /  37.5 km/h 96 % 0.0 in /  0 mm
18:38 10.8 °F /  -11.8 °C 10.0 °F /  -12.2 °C 1031.0 in /  34909.7 hPa WSW 19.8 mph /  31.9 km/h 23.3 mph /  37.5 km/h 97 % 0.0 in /  0 mm
18:43 10.8 °F /  -11.8 °C 10.0 °F /  -12.2 °C 1031.0 in /  34909.7 hPa WSW 17.7 mph /  28.5 km/h 20.6 mph /  33.2 km/h 97 % 0.0 in /  0 mm
18:48 10.8 °F /  -11.8 °C 10.0 °F /  -12.2 °C 1031.0 in /  34909.7 hPa WSW 12.6 mph /  20.3 km/h 20.6 mph /  33.2 km/h 97 % 0.0 in /  0 mm
18:53 10.8 °F /  -11.8 °C 10.0 °F /  -12.2 °C 1031.0 in /  34909.7 hPa West 16.3 mph /  26.2 km/h 17.2 mph /  27.7 km/h 97 % 0.0 in /  0 mm
18:58 10.8 °F /  -11.8 °C 10.0 °F /  -12.2 °C 1031.0 in /  34909.7 hPa WSW 15.8 mph /  25.4 km/h 17.2 mph /  27.7 km/h 97 % 0.0 in /  0 mm
19:03 10.8 °F /  -11.8 °C 10.0 °F /  -12.2 °C 1031.0 in /  34909.7 hPa WSW 16.6 mph /  26.7 km/h 18.0 mph /  29 km/h 97 % 0.0 in /  0 mm
19:08 10.8 °F /  -11.8 °C 10.0 °F /  -12.2 °C 1031.0 in /  34909.7 hPa West 21.9 mph /  35.2 km/h 21.9 mph /  35.2 km/h 97 % 0.0 in /  0 mm
19:13 10.8 °F /  -11.8 °C 10.0 °F /  -12.2 °C 1031.0 in /  34909.7 hPa WSW 19.5 mph /  31.4 km/h 22.4 mph /  36 km/h 97 % 0.0 in /  0 mm
19:18 10.9 °F /  -11.7 °C 11.0 °F /  -11.7 °C 1031.0 in /  34909.7 hPa WSW 21.2 mph /  34.1 km/h 22.4 mph /  36 km/h 97 % 0.0 in /  0 mm
19:23 10.9 °F /  -11.7 °C 11.0 °F /  -11.7 °C 1031.0 in /  34909.7 hPa WSW 23.8 mph /  38.3 km/h 23.8 mph /  38.3 km/h 97 % 0.0 in /  0 mm
19:28 10.9 °F /  -11.7 °C 11.0 °F /  -11.7 °C 1031.0 in /  34909.7 hPa WSW 16.9 mph /  27.2 km/h 23.8 mph /  38.3 km/h 97 % 0.0 in /  0 mm
19:33 10.9 °F /  -11.7 °C 11.0 °F /  -11.7 °C 1031.0 in /  34909.7 hPa WSW 17.7 mph /  28.5 km/h 24.8 mph /  39.9 km/h 97 % 0.0 in /  0 mm
19:38 10.9 °F /  -11.7 °C 11.0 °F /  -11.7 °C 1031.0 in /  34909.7 hPa WSW 20.6 mph /  33.2 km/h 24.8 mph /  39.9 km/h 97 % 0.0 in /  0 mm
19:43 10.9 °F /  -11.7 °C 11.0 °F /  -11.7 °C 1031.0 in /  34909.7 hPa WSW 23.0 mph /  37 km/h 26.2 mph /  42.2 km/h 97 % 0.0 in /  0 mm
19:49 10.9 °F /  -11.7 °C 11.0 °F /  -11.7 °C 1031.0 in /  34909.7 hPa WSW 16.6 mph /  26.7 km/h 26.2 mph /  42.2 km/h 97 % 0.0 in /  0 mm
19:54 10.8 °F /  -11.8 °C 10.0 °F /  -12.2 °C 1031.0 in /  34909.7 hPa WSW 23.3 mph /  37.5 km/h 31.7 mph /  51 km/h 97 % 0.0 in /  0 mm
19:59 10.8 °F /  -11.8 °C 11.0 °F /  -11.7 °C 1031.0 in /  34909.7 hPa WSW 28.5 mph /  45.9 km/h 31.7 mph /  51 km/h 98 % 0.0 in /  0 mm
20:04 10.8 °F /  -11.8 °C 11.0 °F /  -11.7 °C 1031.0 in /  34909.7 hPa WSW 16.9 mph /  27.2 km/h 28.5 mph /  45.9 km/h 98 % 0.0 in /  0 mm
20:09 10.8 °F /  -11.8 °C 11.0 °F /  -11.7 °C 1031.0 in /  34909.7 hPa WSW 25.3 mph /  40.7 km/h 28.5 mph /  45.9 km/h 98 % 0.0 in /  0 mm
20:14 10.8 °F /  -11.8 °C 11.0 °F /  -11.7 °C 1030.0 in /  34875.8 hPa West 19.8 mph /  31.9 km/h 28.5 mph /  45.9 km/h 98 % 0.0 in /  0 mm
20:19 10.8 °F /  -11.8 °C 11.0 °F /  -11.7 °C 1030.0 in /  34875.8 hPa WSW 25.9 mph /  41.7 km/h 28.5 mph /  45.9 km/h 98 % 0.0 in /  0 mm
20:24 10.8 °F /  -11.8 °C 11.0 °F /  -11.7 °C 1030.0 in /  34875.8 hPa West 22.7 mph /  36.5 km/h 27.4 mph /  44.1 km/h 98 % 0.0 in /  0 mm
20:29 10.7 °F /  -11.8 °C 11.0 °F /  -11.7 °C 1030.0 in /  34875.8 hPa WSW 15.4 mph /  24.8 km/h 27.4 mph /  44.1 km/h 98 % 0.0 in /  0 mm
20:34 10.7 °F /  -11.8 °C 11.0 °F /  -11.7 °C 1030.0 in /  34875.8 hPa WSW 16.9 mph /  27.2 km/h 27.7 mph /  44.6 km/h 98 % 0.0 in /  0 mm
20:39 10.7 °F /  -11.8 °C 11.0 °F /  -11.7 °C 1030.0 in /  34875.8 hPa WSW 24.8 mph /  39.9 km/h 32.0 mph /  51.5 km/h 98 % 0.0 in /  0 mm
20:44 10.7 °F /  -11.8 °C 11.0 °F /  -11.7 °C 1030.0 in /  34875.8 hPa WSW 20.9 mph /  33.6 km/h 33.1 mph /  53.3 km/h 98 % 0.0 in /  0 mm
20:49 10.7 °F /  -11.8 °C 11.0 °F /  -11.7 °C 1030.0 in /  34875.8 hPa WSW 25.6 mph /  41.2 km/h 33.1 mph /  53.3 km/h 98 % 0.0 in /  0 mm
20:54 10.7 °F /  -11.8 °C 11.0 °F /  -11.7 °C 1030.0 in /  34875.8 hPa WSW 24.8 mph /  39.9 km/h 28.8 mph /  46.3 km/h 98 % 0.0 in /  0 mm
20:59 10.6 °F /  -11.9 °C 11.0 °F /  -11.7 °C 1031.0 in /  34909.7 hPa WSW 20.6 mph /  33.2 km/h 26.7 mph /  43 km/h 98 % 0.0 in /  0 mm
21:04 10.6 °F /  -11.9 °C 11.0 °F /  -11.7 °C 1031.0 in /  34909.7 hPa WSW 15.8 mph /  25.4 km/h 25.3 mph /  40.7 km/h 98 % 0.0 in /  0 mm
21:09 10.6 °F /  -11.9 °C 11.0 °F /  -11.7 °C 1031.0 in /  34909.7 hPa WSW 20.6 mph /  33.2 km/h 25.3 mph /  40.7 km/h 98 % 0.0 in /  0 mm
21:14 10.6 °F /  -11.9 °C 11.0 °F /  -11.7 °C 1031.0 in /  34909.7 hPa WSW 21.2 mph /  34.1 km/h 24.8 mph /  39.9 km/h 98 % 0.0 in /  0 mm
21:20 10.6 °F /  -11.9 °C 11.0 °F /  -11.7 °C 1031.0 in /  34909.7 hPa WSW 17.7 mph /  28.5 km/h 24.8 mph /  39.9 km/h 98 % 0.0 in /  0 mm
21:25 10.6 °F /  -11.9 °C 11.0 °F /  -11.7 °C 1031.0 in /  34909.7 hPa WSW 20.1 mph /  32.3 km/h 24.5 mph /  39.4 km/h 98 % 0.0 in /  0 mm
21:30 10.6 °F /  -11.9 °C 11.0 °F /  -11.7 °C 1031.0 in /  34909.7 hPa SW 14.0 mph /  22.5 km/h 24.5 mph /  39.4 km/h 98 % 0.0 in /  0 mm
21:35 10.6 °F /  -11.9 °C 11.0 °F /  -11.7 °C 1031.0 in /  34909.7 hPa WSW 20.9 mph /  33.6 km/h 23.8 mph /  38.3 km/h 98 % 0.0 in /  0 mm
21:40 10.6 °F /  -11.9 °C 11.0 °F /  -11.7 °C 1031.0 in /  34909.7 hPa WSW 21.2 mph /  34.1 km/h 23.8 mph /  38.3 km/h 98 % 0.0 in /  0 mm
21:45 10.6 °F /  -11.9 °C 11.0 °F /  -11.7 °C 1030.0 in /  34875.8 hPa WSW 19.8 mph /  31.9 km/h 23.8 mph /  38.3 km/h 98 % 0.0 in /  0 mm
21:50 10.7 °F /  -11.8 °C 11.0 °F /  -11.7 °C 1030.0 in /  34875.8 hPa WSW 13.0 mph /  20.9 km/h 24.8 mph /  39.9 km/h 98 % 0.0 in /  0 mm
21:56 10.7 °F /  -11.8 °C 11.0 °F /  -11.7 °C 1030.0 in /  34875.8 hPa WSW 16.9 mph /  27.2 km/h 24.8 mph /  39.9 km/h 98 % 0.0 in /  0 mm
22:01 10.7 °F /  -11.8 °C 11.0 °F /  -11.7 °C 1030.0 in /  34875.8 hPa WSW 17.7 mph /  28.5 km/h 21.2 mph /  34.1 km/h 98 % 0.0 in /  0 mm
22:06 10.8 °F /  -11.8 °C 11.0 °F /  -11.7 °C 1030.0 in /  34875.8 hPa WSW 17.7 mph /  28.5 km/h 20.9 mph /  33.6 km/h 98 % 0.0 in /  0 mm
22:11 10.8 °F /  -11.8 °C 11.0 °F /  -11.7 °C 1030.0 in /  34875.8 hPa WSW 19.5 mph /  31.4 km/h 21.9 mph /  35.2 km/h 98 % 0.0 in /  0 mm
22:16 10.8 °F /  -11.8 °C 11.0 °F /  -11.7 °C 1031.0 in /  34909.7 hPa WSW 20.6 mph /  33.2 km/h 22.7 mph /  36.5 km/h 98 % 0.0 in /  0 mm
22:21 10.8 °F /  -11.8 °C 11.0 °F /  -11.7 °C 1031.0 in /  34909.7 hPa SW 13.0 mph /  20.9 km/h 22.7 mph /  36.5 km/h 98 % 0.0 in /  0 mm
22:26 10.8 °F /  -11.8 °C 11.0 °F /  -11.7 °C 1031.0 in /  34909.7 hPa WSW 17.7 mph /  28.5 km/h 20.6 mph /  33.2 km/h 98 % 0.0 in /  0 mm
22:31 10.8 °F /  -11.8 °C 11.0 °F /  -11.7 °C 1031.0 in /  34909.7 hPa WSW 17.2 mph /  27.7 km/h 20.1 mph /  32.3 km/h 98 % 0.0 in /  0 mm
22:36 10.8 °F /  -11.8 °C 11.0 °F /  -11.7 °C 1031.0 in /  34909.7 hPa WSW 12.6 mph /  20.3 km/h 19.5 mph /  31.4 km/h 98 % 0.0 in /  0 mm
22:41 10.9 °F /  -11.7 °C 11.0 °F /  -11.7 °C 1031.0 in /  34909.7 hPa WSW 13.0 mph /  20.9 km/h 21.2 mph /  34.1 km/h 98 % 0.0 in /  0 mm
22:46 10.8 °F /  -11.8 °C 11.0 °F /  -11.7 °C 1031.0 in /  34909.7 hPa SW 14.8 mph /  23.8 km/h 21.2 mph /  34.1 km/h 98 % 0.0 in /  0 mm
22:51 10.9 °F /  -11.7 °C 11.0 °F /  -11.7 °C 1031.0 in /  34909.7 hPa WSW 16.6 mph /  26.7 km/h 20.1 mph /  32.3 km/h 98 % 0.0 in /  0 mm
22:56 10.9 °F /  -11.7 °C 11.0 °F /  -11.7 °C 1031.0 in /  34909.7 hPa WSW 15.8 mph /  25.4 km/h 27.0 mph /  43.5 km/h 98 % 0.0 in /  0 mm
23:01 10.9 °F /  -11.7 °C 11.0 °F /  -11.7 °C 1031.0 in /  34909.7 hPa WSW 20.6 mph /  33.2 km/h 29.1 mph /  46.8 km/h 98 % 0.0 in /  0 mm
23:06 10.9 °F /  -11.7 °C 11.0 °F /  -11.7 °C 1031.0 in /  34909.7 hPa West 20.9 mph /  33.6 km/h 29.1 mph /  46.8 km/h 98 % 0.0 in /  0 mm
23:11 10.9 °F /  -11.7 °C 11.0 °F /  -11.7 °C 1031.0 in /  34909.7 hPa WSW 23.8 mph /  38.3 km/h 32.3 mph /  52 km/h 98 % 0.0 in /  0 mm
23:16 11.0 °F /  -11.7 °C 11.0 °F /  -11.7 °C 1031.0 in /  34909.7 hPa WSW 22.4 mph /  36 km/h 32.3 mph /  52 km/h 98 % 0.0 in /  0 mm
23:22 11.1 °F /  -11.6 °C 11.0 °F /  -11.7 °C 1031.0 in /  34909.7 hPa WSW 22.7 mph /  36.5 km/h 31.7 mph /  51 km/h 98 % 0.0 in /  0 mm
23:27 11.1 °F /  -11.6 °C 11.0 °F /  -11.7 °C 1031.0 in /  34909.7 hPa WSW 21.9 mph /  35.2 km/h 31.7 mph /  51 km/h 97 % 0.0 in /  0 mm
23:32 11.1 °F /  -11.6 °C 11.0 °F /  -11.7 °C 1031.0 in /  34909.7 hPa West 28.5 mph /  45.9 km/h 29.1 mph /  46.8 km/h 97 % 0.0 in /  0 mm
23:37 11.1 °F /  -11.6 °C 11.0 °F /  -11.7 °C 1031.0 in /  34909.7 hPa WSW 20.6 mph /  33.2 km/h 32.0 mph /  51.5 km/h 97 % 0.0 in /  0 mm
23:42 11.1 °F /  -11.6 °C 11.0 °F /  -11.7 °C 1031.0 in /  34909.7 hPa WSW 13.0 mph /  20.9 km/h 32.0 mph /  51.5 km/h 97 % 0.0 in /  0 mm
23:47 11.1 °F /  -11.6 °C 11.0 °F /  -11.7 °C 1031.0 in /  34909.7 hPa West 23.0 mph /  37 km/h 28.5 mph /  45.9 km/h 97 % 0.0 in /  0 mm
23:52 11.1 °F /  -11.6 °C 11.0 °F /  -11.7 °C 1031.0 in /  34909.7 hPa WSW 13.7 mph /  22 km/h 28.5 mph /  45.9 km/h 97 % 0.0 in /  0 mm
23:57 11.1 °F /  -11.6 °C 11.0 °F /  -11.7 °C 1031.0 in /  34909.7 hPa WSW 16.6 mph /  26.7 km/h 27.7 mph /  44.6 km/h 97 % 0.0 in /  0 mm
Le Gheer Warneton
Courtoisie de Weather Underground - 2.25 mb

Mise a jour : 17/02/2018 20:19:12
Généré par Cumulus 1.9.4 (1099)